sensor_id;sensor_type;location;lat;lon;timestamp;P1;durP1;ratioP1;P2;durP2;ratioP2
12844;SDS011;6489;48.508;9.206;2022-08-19T00:00:47;38.63;;;23.80;;
12844;SDS011;6489;48.508;9.206;2022-08-19T00:04:11;41.50;;;24.27;;
12844;SDS011;6489;48.508;9.206;2022-08-19T00:07:36;27.97;;;23.03;;
12844;SDS011;6489;48.508;9.206;2022-08-19T00:10:58;26.80;;;23.43;;
12844;SDS011;6489;48.508;9.206;2022-08-19T00:14:20;41.43;;;24.10;;
12844;SDS011;6489;48.508;9.206;2022-08-19T00:17:44;30.10;;;23.57;;
12844;SDS011;6489;48.508;9.206;2022-08-19T00:21:06;30.93;;;23.67;;
12844;SDS011;6489;48.508;9.206;2022-08-19T00:24:31;36.37;;;25.23;;
12844;SDS011;6489;48.508;9.206;2022-08-19T00:27:53;34.77;;;24.07;;
12844;SDS011;6489;48.508;9.206;2022-08-19T00:31:15;27.10;;;21.80;;
12844;SDS011;6489;48.508;9.206;2022-08-19T00:34:36;24.77;;;22.17;;
12844;SDS011;6489;48.508;9.206;2022-08-19T00:37:58;33.30;;;22.93;;
12844;SDS011;6489;48.508;9.206;2022-08-19T00:41:23;36.23;;;23.33;;
12844;SDS011;6489;48.508;9.206;2022-08-19T00:44:45;29.60;;;22.90;;
12844;SDS011;6489;48.508;9.206;2022-08-19T00:48:07;25.23;;;22.53;;
12844;SDS011;6489;48.508;9.206;2022-08-19T00:51:30;35.23;;;24.03;;
12844;SDS011;6489;48.508;9.206;2022-08-19T00:54:52;31.87;;;23.57;;
12844;SDS011;6489;48.508;9.206;2022-08-19T00:58:16;25.57;;;21.77;;
12844;SDS011;6489;48.508;9.206;2022-08-19T01:01:41;30.27;;;21.67;;
12844;SDS011;6489;48.508;9.206;2022-08-19T01:05:05;34.30;;;22.63;;
12844;SDS011;6489;48.508;9.206;2022-08-19T01:08:28;28.27;;;21.77;;
12844;SDS011;6489;48.508;9.206;2022-08-19T01:11:50;25.10;;;21.47;;
12844;SDS011;6489;48.508;9.206;2022-08-19T01:17:38;32.33;;;21.80;;
12844;SDS011;6489;48.508;9.206;2022-08-19T01:21:02;29.70;;;22.13;;
12844;SDS011;6489;48.508;9.206;2022-08-19T01:24:30;28.53;;;21.03;;
12844;SDS011;6489;48.508;9.206;2022-08-19T01:27:52;27.20;;;21.77;;
12844;SDS011;6489;48.508;9.206;2022-08-19T01:31:17;23.70;;;20.50;;
12844;SDS011;6489;48.508;9.206;2022-08-19T01:34:42;26.73;;;21.47;;
12844;SDS011;6489;48.508;9.206;2022-08-19T01:38:08;26.47;;;21.60;;
12844;SDS011;6489;48.508;9.206;2022-08-19T01:41:32;32.50;;;21.37;;
12844;SDS011;6489;48.508;9.206;2022-08-19T01:44:55;25.93;;;20.60;;
12844;SDS011;6489;48.508;9.206;2022-08-19T01:48:17;26.57;;;20.80;;
12844;SDS011;6489;48.508;9.206;2022-08-19T01:51:39;28.80;;;21.83;;
12844;SDS011;6489;48.508;9.206;2022-08-19T01:55:00;27.33;;;19.87;;
12844;SDS011;6489;48.508;9.206;2022-08-19T01:58:25;23.37;;;19.73;;
12844;SDS011;6489;48.508;9.206;2022-08-19T02:01:51;27.97;;;20.73;;
12844;SDS011;6489;48.508;9.206;2022-08-19T02:05:13;26.07;;;20.40;;
12844;SDS011;6489;48.508;9.206;2022-08-19T02:08:39;25.30;;;19.17;;
12844;SDS011;6489;48.508;9.206;2022-08-19T02:12:01;22.67;;;20.03;;
12844;SDS011;6489;48.508;9.206;2022-08-19T02:15:25;26.80;;;19.73;;
12844;SDS011;6489;48.508;9.206;2022-08-19T02:18:47;29.57;;;19.63;;
12844;SDS011;6489;48.508;9.206;2022-08-19T02:22:09;30.57;;;21.13;;
12844;SDS011;6489;48.508;9.206;2022-08-19T02:25:31;23.60;;;19.87;;
12844;SDS011;6489;48.508;9.206;2022-08-19T02:28:53;27.77;;;20.57;;
12844;SDS011;6489;48.508;9.206;2022-08-19T02:32:17;28.07;;;20.90;;
12844;SDS011;6489;48.508;9.206;2022-08-19T02:35:40;27.63;;;18.53;;
12844;SDS011;6489;48.508;9.206;2022-08-19T02:39:03;23.40;;;19.23;;
12844;SDS011;6489;48.508;9.206;2022-08-19T02:42:25;35.00;;;20.60;;
12844;SDS011;6489;48.508;9.206;2022-08-19T02:45:47;28.63;;;19.77;;
12844;SDS011;6489;48.508;9.206;2022-08-19T02:49:11;26.53;;;19.90;;
12844;SDS011;6489;48.508;9.206;2022-08-19T02:52:36;28.80;;;19.50;;
12844;SDS011;6489;48.508;9.206;2022-08-19T02:55:58;27.77;;;18.50;;
12844;SDS011;6489;48.508;9.206;2022-08-19T02:59:20;28.10;;;20.37;;
12844;SDS011;6489;48.508;9.206;2022-08-19T03:02:42;30.83;;;20.97;;
12844;SDS011;6489;48.508;9.206;2022-08-19T03:06:07;28.80;;;20.87;;
12844;SDS011;6489;48.508;9.206;2022-08-19T03:09:30;28.37;;;20.60;;
12844;SDS011;6489;48.508;9.206;2022-08-19T03:12:52;28.60;;;20.10;;
12844;SDS011;6489;48.508;9.206;2022-08-19T03:16:14;28.57;;;21.27;;
12844;SDS011;6489;48.508;9.206;2022-08-19T03:19:36;29.47;;;20.57;;
12844;SDS011;6489;48.508;9.206;2022-08-19T03:23:00;28.60;;;21.37;;
12844;SDS011;6489;48.508;9.206;2022-08-19T03:26:22;27.27;;;20.33;;
12844;SDS011;6489;48.508;9.206;2022-08-19T03:29:44;29.23;;;21.03;;
12844;SDS011;6489;48.508;9.206;2022-08-19T03:33:06;29.60;;;20.90;;
12844;SDS011;6489;48.508;9.206;2022-08-19T03:36:28;33.90;;;20.50;;
12844;SDS011;6489;48.508;9.206;2022-08-19T03:39:51;26.17;;;19.47;;
12844;SDS011;6489;48.508;9.206;2022-08-19T03:43:13;24.00;;;20.23;;
12844;SDS011;6489;48.508;9.206;2022-08-19T03:46:37;25.87;;;19.17;;
12844;SDS011;6489;48.508;9.206;2022-08-19T03:49:59;30.77;;;21.10;;
12844;SDS011;6489;48.508;9.206;2022-08-19T03:53:22;28.23;;;21.47;;
12844;SDS011;6489;48.508;9.206;2022-08-19T03:56:45;34.93;;;20.90;;
12844;SDS011;6489;48.508;9.206;2022-08-19T04:00:10;32.13;;;20.13;;
12844;SDS011;6489;48.508;9.206;2022-08-19T04:03:32;26.10;;;20.83;;
12844;SDS011;6489;48.508;9.206;2022-08-19T04:06:56;34.67;;;21.47;;
12844;SDS011;6489;48.508;9.206;2022-08-19T04:10:18;31.27;;;21.23;;
12844;SDS011;6489;48.508;9.206;2022-08-19T04:13:41;29.53;;;20.57;;
12844;SDS011;6489;48.508;9.206;2022-08-19T04:17:03;28.63;;;21.00;;
12844;SDS011;6489;48.508;9.206;2022-08-19T04:20:25;29.47;;;21.07;;
12844;SDS011;6489;48.508;9.206;2022-08-19T04:23:47;27.70;;;20.27;;
12844;SDS011;6489;48.508;9.206;2022-08-19T04:27:09;28.53;;;20.77;;
12844;SDS011;6489;48.508;9.206;2022-08-19T04:30:38;25.70;;;20.07;;
12844;SDS011;6489;48.508;9.206;2022-08-19T04:34:02;28.90;;;20.57;;
12844;SDS011;6489;48.508;9.206;2022-08-19T04:37:26;27.30;;;20.77;;
12844;SDS011;6489;48.508;9.206;2022-08-19T04:40:52;29.00;;;21.13;;
12844;SDS011;6489;48.508;9.206;2022-08-19T04:44:32;32.27;;;21.27;;
12844;SDS011;6489;48.508;9.206;2022-08-19T04:47:57;45.63;;;21.50;;
12844;SDS011;6489;48.508;9.206;2022-08-19T04:51:19;28.50;;;20.63;;
12844;SDS011;6489;48.508;9.206;2022-08-19T04:54:41;32.33;;;20.10;;
12844;SDS011;6489;48.508;9.206;2022-08-19T04:58:03;30.63;;;20.90;;
12844;SDS011;6489;48.508;9.206;2022-08-19T05:01:25;31.40;;;21.10;;
12844;SDS011;6489;48.508;9.206;2022-08-19T05:04:50;27.47;;;19.50;;
12844;SDS011;6489;48.508;9.206;2022-08-19T05:08:17;27.60;;;21.27;;
12844;SDS011;6489;48.508;9.206;2022-08-19T05:11:42;25.30;;;21.20;;
12844;SDS011;6489;48.508;9.206;2022-08-19T05:15:05;40.03;;;21.90;;
12844;SDS011;6489;48.508;9.206;2022-08-19T05:18:29;32.53;;;21.57;;
12844;SDS011;6489;48.508;9.206;2022-08-19T05:22:10;36.37;;;20.70;;
12844;SDS011;6489;48.508;9.206;2022-08-19T05:25:49;42.20;;;22.40;;
12844;SDS011;6489;48.508;9.206;2022-08-19T05:29:12;32.47;;;22.03;;
12844;SDS011;6489;48.508;9.206;2022-08-19T05:32:34;64.70;;;23.13;;
12844;SDS011;6489;48.508;9.206;2022-08-19T05:35:56;25.93;;;20.80;;
12844;SDS011;6489;48.508;9.206;2022-08-19T05:39:20;30.03;;;21.03;;
12844;SDS011;6489;48.508;9.206;2022-08-19T05:42:42;34.93;;;22.30;;
12844;SDS011;6489;48.508;9.206;2022-08-19T05:46:05;35.60;;;21.03;;
12844;SDS011;6489;48.508;9.206;2022-08-19T05:49:28;29.13;;;21.33;;
12844;SDS011;6489;48.508;9.206;2022-08-19T05:52:51;35.57;;;21.97;;
12844;SDS011;6489;48.508;9.206;2022-08-19T05:56:15;50.23;;;21.77;;
12844;SDS011;6489;48.508;9.206;2022-08-19T05:59:38;34.53;;;22.10;;
12844;SDS011;6489;48.508;9.206;2022-08-19T06:03:00;32.37;;;21.73;;
12844;SDS011;6489;48.508;9.206;2022-08-19T06:06:23;29.53;;;21.37;;
12844;SDS011;6489;48.508;9.206;2022-08-19T06:09:45;38.87;;;22.67;;
12844;SDS011;6489;48.508;9.206;2022-08-19T06:13:08;36.10;;;21.63;;
12844;SDS011;6489;48.508;9.206;2022-08-19T06:16:30;29.57;;;21.53;;
12844;SDS011;6489;48.508;9.206;2022-08-19T06:19:55;41.33;;;22.70;;
12844;SDS011;6489;48.508;9.206;2022-08-19T06:23:18;41.47;;;22.40;;
12844;SDS011;6489;48.508;9.206;2022-08-19T06:26:41;39.80;;;22.77;;
12844;SDS011;6489;48.508;9.206;2022-08-19T06:30:06;37.10;;;22.63;;
12844;SDS011;6489;48.508;9.206;2022-08-19T06:33:28;42.13;;;23.40;;
12844;SDS011;6489;48.508;9.206;2022-08-19T06:36:51;60.60;;;26.17;;
12844;SDS011;6489;48.508;9.206;2022-08-19T06:40:13;42.93;;;32.60;;
12844;SDS011;6489;48.508;9.206;2022-08-19T06:43:35;49.73;;;35.90;;
12844;SDS011;6489;48.508;9.206;2022-08-19T06:46:59;46.90;;;31.37;;
12844;SDS011;6489;48.508;9.206;2022-08-19T06:50:22;41.77;;;27.60;;
12844;SDS011;6489;48.508;9.206;2022-08-19T06:53:44;31.50;;;25.47;;
12844;SDS011;6489;48.508;9.206;2022-08-19T06:57:07;46.23;;;25.10;;
12844;SDS011;6489;48.508;9.206;2022-08-19T07:00:33;36.30;;;25.77;;
12844;SDS011;6489;48.508;9.206;2022-08-19T07:03:56;37.17;;;25.97;;
12844;SDS011;6489;48.508;9.206;2022-08-19T07:07:19;40.97;;;24.37;;
12844;SDS011;6489;48.508;9.206;2022-08-19T07:10:43;39.67;;;24.37;;
12844;SDS011;6489;48.508;9.206;2022-08-19T07:14:05;42.53;;;24.63;;
12844;SDS011;6489;48.508;9.206;2022-08-19T07:17:27;41.13;;;24.20;;
12844;SDS011;6489;48.508;9.206;2022-08-19T07:20:50;31.37;;;24.30;;
12844;SDS011;6489;48.508;9.206;2022-08-19T07:24:23;31.97;;;24.13;;
12844;SDS011;6489;48.508;9.206;2022-08-19T07:27:48;31.43;;;24.00;;
12844;SDS011;6489;48.508;9.206;2022-08-19T07:31:11;49.03;;;26.90;;
12844;SDS011;6489;48.508;9.206;2022-08-19T07:34:33;36.93;;;23.50;;
12844;SDS011;6489;48.508;9.206;2022-08-19T07:37:59;49.23;;;25.10;;
12844;SDS011;6489;48.508;9.206;2022-08-19T07:41:24;46.10;;;25.80;;
12844;SDS011;6489;48.508;9.206;2022-08-19T07:44:48;38.87;;;24.77;;
12844;SDS011;6489;48.508;9.206;2022-08-19T07:48:10;36.57;;;25.23;;
12844;SDS011;6489;48.508;9.206;2022-08-19T07:51:32;46.97;;;25.63;;
12844;SDS011;6489;48.508;9.206;2022-08-19T07:54:57;49.27;;;27.10;;
12844;SDS011;6489;48.508;9.206;2022-08-19T07:58:23;35.10;;;25.30;;
12844;SDS011;6489;48.508;9.206;2022-08-19T08:01:45;41.83;;;25.10;;
12844;SDS011;6489;48.508;9.206;2022-08-19T08:05:07;38.87;;;25.00;;
12844;SDS011;6489;48.508;9.206;2022-08-19T08:08:47;45.10;;;24.80;;
12844;SDS011;6489;48.508;9.206;2022-08-19T08:12:30;41.50;;;26.53;;
12844;SDS011;6489;48.508;9.206;2022-08-19T08:15:53;38.50;;;24.77;;
12844;SDS011;6489;48.508;9.206;2022-08-19T08:19:15;41.60;;;25.83;;
12844;SDS011;6489;48.508;9.206;2022-08-19T08:22:41;60.73;;;26.73;;
12844;SDS011;6489;48.508;9.206;2022-08-19T08:26:22;38.73;;;26.73;;
12844;SDS011;6489;48.508;9.206;2022-08-19T08:29:46;38.20;;;25.17;;
12844;SDS011;6489;48.508;9.206;2022-08-19T08:33:09;35.77;;;26.60;;
12844;SDS011;6489;48.508;9.206;2022-08-19T08:36:31;49.53;;;26.33;;
12844;SDS011;6489;48.508;9.206;2022-08-19T08:39:53;39.50;;;25.60;;
12844;SDS011;6489;48.508;9.206;2022-08-19T08:43:19;43.03;;;26.60;;
12844;SDS011;6489;48.508;9.206;2022-08-19T08:46:46;38.50;;;26.70;;
12844;SDS011;6489;48.508;9.206;2022-08-19T08:50:12;43.07;;;26.87;;
12844;SDS011;6489;48.508;9.206;2022-08-19T08:53:37;39.57;;;25.50;;
12844;SDS011;6489;48.508;9.206;2022-08-19T08:57:00;39.60;;;26.37;;
12844;SDS011;6489;48.508;9.206;2022-08-19T09:00:24;43.23;;;26.53;;
12844;SDS011;6489;48.508;9.206;2022-08-19T09:03:50;39.47;;;26.93;;
12844;SDS011;6489;48.508;9.206;2022-08-19T09:07:15;31.37;;;26.10;;
12844;SDS011;6489;48.508;9.206;2022-08-19T09:10:44;36.50;;;26.23;;
12844;SDS011;6489;48.508;9.206;2022-08-19T09:14:10;40.63;;;26.40;;
12844;SDS011;6489;48.508;9.206;2022-08-19T09:17:40;39.43;;;27.20;;
12844;SDS011;6489;48.508;9.206;2022-08-19T09:21:03;39.57;;;26.60;;
12844;SDS011;6489;48.508;9.206;2022-08-19T09:24:25;36.20;;;25.37;;
12844;SDS011;6489;48.508;9.206;2022-08-19T09:27:47;43.13;;;28.87;;
12844;SDS011;6489;48.508;9.206;2022-08-19T09:31:09;35.63;;;27.60;;
12844;SDS011;6489;48.508;9.206;2022-08-19T09:34:31;38.57;;;26.93;;
12844;SDS011;6489;48.508;9.206;2022-08-19T09:37:55;34.67;;;25.40;;
12844;SDS011;6489;48.508;9.206;2022-08-19T09:41:18;36.33;;;26.07;;
12844;SDS011;6489;48.508;9.206;2022-08-19T09:44:40;57.20;;;29.43;;
12844;SDS011;6489;48.508;9.206;2022-08-19T09:48:03;48.67;;;28.47;;
12844;SDS011;6489;48.508;9.206;2022-08-19T09:51:26;49.43;;;29.70;;
12844;SDS011;6489;48.508;9.206;2022-08-19T09:54:52;42.73;;;27.57;;
12844;SDS011;6489;48.508;9.206;2022-08-19T09:58:14;37.60;;;26.90;;
12844;SDS011;6489;48.508;9.206;2022-08-19T10:03:37;51.67;;;28.73;;
12844;SDS011;6489;48.508;9.206;2022-08-19T10:06:59;42.37;;;28.00;;
12844;SDS011;6489;48.508;9.206;2022-08-19T10:10:21;41.03;;;26.43;;
12844;SDS011;6489;48.508;9.206;2022-08-19T10:13:43;40.53;;;27.63;;
12844;SDS011;6489;48.508;9.206;2022-08-19T10:17:06;37.27;;;27.90;;
12844;SDS011;6489;48.508;9.206;2022-08-19T10:20:29;38.30;;;27.87;;
12844;SDS011;6489;48.508;9.206;2022-08-19T10:23:53;44.30;;;27.87;;
12844;SDS011;6489;48.508;9.206;2022-08-19T10:27:16;35.63;;;26.40;;
12844;SDS011;6489;48.508;9.206;2022-08-19T10:30:38;35.63;;;26.83;;
12844;SDS011;6489;48.508;9.206;2022-08-19T10:34:00;47.23;;;28.50;;
12844;SDS011;6489;48.508;9.206;2022-08-19T10:37:24;55.67;;;28.47;;
12844;SDS011;6489;48.508;9.206;2022-08-19T10:40:46;43.73;;;29.60;;
12844;SDS011;6489;48.508;9.206;2022-08-19T10:44:09;42.97;;;28.60;;
12844;SDS011;6489;48.508;9.206;2022-08-19T10:47:32;42.07;;;27.17;;
12844;SDS011;6489;48.508;9.206;2022-08-19T10:50:54;40.53;;;28.33;;
12844;SDS011;6489;48.508;9.206;2022-08-19T10:54:36;41.57;;;25.30;;
12844;SDS011;6489;48.508;9.206;2022-08-19T10:58:16;42.43;;;28.83;;
12844;SDS011;6489;48.508;9.206;2022-08-19T11:01:45;35.43;;;27.53;;
12844;SDS011;6489;48.508;9.206;2022-08-19T11:05:07;42.60;;;29.67;;
12844;SDS011;6489;48.508;9.206;2022-08-19T11:08:32;51.23;;;31.17;;
12844;SDS011;6489;48.508;9.206;2022-08-19T11:11:56;42.40;;;28.20;;
12844;SDS011;6489;48.508;9.206;2022-08-19T11:15:18;34.40;;;27.10;;
12844;SDS011;6489;48.508;9.206;2022-08-19T11:18:41;38.47;;;27.33;;
12844;SDS011;6489;48.508;9.206;2022-08-19T11:22:06;46.37;;;27.83;;
12844;SDS011;6489;48.508;9.206;2022-08-19T11:25:29;52.20;;;27.90;;
12844;SDS011;6489;48.508;9.206;2022-08-19T11:28:52;57.63;;;30.03;;
12844;SDS011;6489;48.508;9.206;2022-08-19T11:32:15;46.40;;;30.10;;
12844;SDS011;6489;48.508;9.206;2022-08-19T11:35:38;57.67;;;27.23;;
12844;SDS011;6489;48.508;9.206;2022-08-19T11:39:01;48.43;;;29.27;;
12844;SDS011;6489;48.508;9.206;2022-08-19T11:42:26;35.07;;;27.33;;
12844;SDS011;6489;48.508;9.206;2022-08-19T11:46:11;50.73;;;30.13;;
12844;SDS011;6489;48.508;9.206;2022-08-19T11:49:34;52.73;;;28.03;;
12844;SDS011;6489;48.508;9.206;2022-08-19T11:52:56;49.90;;;28.10;;
12844;SDS011;6489;48.508;9.206;2022-08-19T11:56:18;41.50;;;27.73;;
12844;SDS011;6489;48.508;9.206;2022-08-19T11:59:40;45.33;;;26.53;;
12844;SDS011;6489;48.508;9.206;2022-08-19T12:03:04;47.80;;;27.27;;
12844;SDS011;6489;48.508;9.206;2022-08-19T12:06:27;37.10;;;24.67;;
12844;SDS011;6489;48.508;9.206;2022-08-19T12:09:51;48.00;;;26.27;;
12844;SDS011;6489;48.508;9.206;2022-08-19T12:13:13;55.23;;;28.93;;
12844;SDS011;6489;48.508;9.206;2022-08-19T12:16:38;45.60;;;29.73;;
12844;SDS011;6489;48.508;9.206;2022-08-19T12:20:03;40.43;;;29.40;;
12844;SDS011;6489;48.508;9.206;2022-08-19T12:23:26;45.73;;;26.20;;
12844;SDS011;6489;48.508;9.206;2022-08-19T12:26:48;42.50;;;28.00;;
12844;SDS011;6489;48.508;9.206;2022-08-19T12:30:11;42.33;;;29.93;;
12844;SDS011;6489;48.508;9.206;2022-08-19T12:33:34;42.07;;;26.93;;
12844;SDS011;6489;48.508;9.206;2022-08-19T12:36:58;45.30;;;29.43;;
12844;SDS011;6489;48.508;9.206;2022-08-19T12:40:22;44.73;;;29.30;;
12844;SDS011;6489;48.508;9.206;2022-08-19T12:43:44;35.77;;;26.17;;
12844;SDS011;6489;48.508;9.206;2022-08-19T12:47:08;45.17;;;28.10;;
12844;SDS011;6489;48.508;9.206;2022-08-19T12:50:31;41.63;;;24.93;;
12844;SDS011;6489;48.508;9.206;2022-08-19T12:53:54;39.13;;;27.33;;
12844;SDS011;6489;48.508;9.206;2022-08-19T12:57:16;34.73;;;24.90;;
12844;SDS011;6489;48.508;9.206;2022-08-19T13:00:39;32.70;;;24.13;;
12844;SDS011;6489;48.508;9.206;2022-08-19T13:04:01;31.60;;;23.93;;
12844;SDS011;6489;48.508;9.206;2022-08-19T13:07:23;33.07;;;22.40;;
12844;SDS011;6489;48.508;9.206;2022-08-19T13:10:47;34.67;;;24.77;;
12844;SDS011;6489;48.508;9.206;2022-08-19T13:14:09;32.07;;;22.73;;
12844;SDS011;6489;48.508;9.206;2022-08-19T13:17:33;39.83;;;24.07;;
12844;SDS011;6489;48.508;9.206;2022-08-19T13:20:55;36.30;;;23.07;;
12844;SDS011;6489;48.508;9.206;2022-08-19T13:24:17;30.50;;;23.13;;
12844;SDS011;6489;48.508;9.206;2022-08-19T13:27:40;32.70;;;23.30;;
12844;SDS011;6489;48.508;9.206;2022-08-19T13:31:03;28.77;;;22.77;;
12844;SDS011;6489;48.508;9.206;2022-08-19T13:34:53;34.57;;;21.87;;
12844;SDS011;6489;48.508;9.206;2022-08-19T13:38:16;55.70;;;22.90;;
12844;SDS011;6489;48.508;9.206;2022-08-19T13:41:42;55.97;;;22.97;;
12844;SDS011;6489;48.508;9.206;2022-08-19T13:45:09;41.30;;;21.67;;
12844;SDS011;6489;48.508;9.206;2022-08-19T13:48:32;32.20;;;21.27;;
12844;SDS011;6489;48.508;9.206;2022-08-19T13:51:54;23.43;;;18.93;;
12844;SDS011;6489;48.508;9.206;2022-08-19T13:55:17;37.03;;;23.60;;
12844;SDS011;6489;48.508;9.206;2022-08-19T13:58:39;30.80;;;23.77;;
12844;SDS011;6489;48.508;9.206;2022-08-19T14:02:02;35.47;;;23.60;;
12844;SDS011;6489;48.508;9.206;2022-08-19T14:05:26;36.63;;;25.57;;
12844;SDS011;6489;48.508;9.206;2022-08-19T14:08:48;45.33;;;23.63;;
12844;SDS011;6489;48.508;9.206;2022-08-19T14:12:12;34.53;;;23.00;;
12844;SDS011;6489;48.508;9.206;2022-08-19T14:15:34;39.43;;;21.47;;
12844;SDS011;6489;48.508;9.206;2022-08-19T14:18:58;38.70;;;22.87;;
12844;SDS011;6489;48.508;9.206;2022-08-19T14:22:20;34.20;;;23.07;;
12844;SDS011;6489;48.508;9.206;2022-08-19T14:25:42;28.53;;;22.77;;
12844;SDS011;6489;48.508;9.206;2022-08-19T14:29:04;32.43;;;21.87;;
12844;SDS011;6489;48.508;9.206;2022-08-19T14:32:26;29.00;;;21.47;;
12844;SDS011;6489;48.508;9.206;2022-08-19T14:35:50;33.47;;;20.60;;
12844;SDS011;6489;48.508;9.206;2022-08-19T14:39:12;33.47;;;20.30;;
12844;SDS011;6489;48.508;9.206;2022-08-19T14:42:34;30.73;;;20.83;;
12844;SDS011;6489;48.508;9.206;2022-08-19T14:45:56;46.10;;;22.20;;
12844;SDS011;6489;48.508;9.206;2022-08-19T14:49:18;39.43;;;22.33;;
12844;SDS011;6489;48.508;9.206;2022-08-19T14:52:41;40.03;;;21.57;;
12844;SDS011;6489;48.508;9.206;2022-08-19T14:56:06;50.80;;;22.53;;
12844;SDS011;6489;48.508;9.206;2022-08-19T14:59:29;31.90;;;21.50;;
12844;SDS011;6489;48.508;9.206;2022-08-19T15:02:51;35.10;;;22.70;;
12844;SDS011;6489;48.508;9.206;2022-08-19T15:06:14;57.77;;;22.93;;
12844;SDS011;6489;48.508;9.206;2022-08-19T15:09:38;34.80;;;21.87;;
12844;SDS011;6489;48.508;9.206;2022-08-19T15:13:00;31.47;;;20.27;;
12844;SDS011;6489;48.508;9.206;2022-08-19T15:16:22;37.07;;;19.93;;
12844;SDS011;6489;48.508;9.206;2022-08-19T15:19:46;38.67;;;22.80;;
12844;SDS011;6489;48.508;9.206;2022-08-19T15:23:08;36.73;;;21.13;;
12844;SDS011;6489;48.508;9.206;2022-08-19T15:26:32;32.50;;;22.87;;
12844;SDS011;6489;48.508;9.206;2022-08-19T15:29:53;34.90;;;20.93;;
12844;SDS011;6489;48.508;9.206;2022-08-19T15:33:16;39.07;;;22.17;;
12844;SDS011;6489;48.508;9.206;2022-08-19T15:36:39;37.53;;;23.27;;
12844;SDS011;6489;48.508;9.206;2022-08-19T15:40:02;39.60;;;22.23;;
12844;SDS011;6489;48.508;9.206;2022-08-19T15:43:26;42.37;;;20.23;;
12844;SDS011;6489;48.508;9.206;2022-08-19T15:46:48;45.07;;;20.73;;
12844;SDS011;6489;48.508;9.206;2022-08-19T15:50:12;42.77;;;20.13;;
12844;SDS011;6489;48.508;9.206;2022-08-19T15:53:36;35.03;;;21.23;;
12844;SDS011;6489;48.508;9.206;2022-08-19T15:56:59;27.97;;;21.70;;
12844;SDS011;6489;48.508;9.206;2022-08-19T16:00:40;35.30;;;20.57;;
12844;SDS011;6489;48.508;9.206;2022-08-19T16:04:19;55.20;;;22.17;;
12844;SDS011;6489;48.508;9.206;2022-08-19T16:07:58;33.90;;;23.20;;
12844;SDS011;6489;48.508;9.206;2022-08-19T16:11:21;52.83;;;22.33;;
12844;SDS011;6489;48.508;9.206;2022-08-19T16:14:44;35.57;;;19.70;;
12844;SDS011;6489;48.508;9.206;2022-08-19T16:18:08;32.80;;;21.63;;
12844;SDS011;6489;48.508;9.206;2022-08-19T16:21:31;26.40;;;20.43;;
12844;SDS011;6489;48.508;9.206;2022-08-19T16:24:54;34.93;;;22.20;;
12844;SDS011;6489;48.508;9.206;2022-08-19T16:28:16;33.37;;;24.23;;
12844;SDS011;6489;48.508;9.206;2022-08-19T16:31:38;38.37;;;23.73;;
12844;SDS011;6489;48.508;9.206;2022-08-19T16:35:04;29.93;;;20.33;;
12844;SDS011;6489;48.508;9.206;2022-08-19T16:38:26;31.63;;;19.90;;
12844;SDS011;6489;48.508;9.206;2022-08-19T16:41:49;41.07;;;21.53;;
12844;SDS011;6489;48.508;9.206;2022-08-19T16:45:11;31.47;;;21.33;;
12844;SDS011;6489;48.508;9.206;2022-08-19T16:48:33;35.90;;;23.30;;
12844;SDS011;6489;48.508;9.206;2022-08-19T16:51:56;37.33;;;21.50;;
12844;SDS011;6489;48.508;9.206;2022-08-19T16:55:18;35.77;;;22.00;;
12844;SDS011;6489;48.508;9.206;2022-08-19T16:58:40;37.83;;;20.80;;
12844;SDS011;6489;48.508;9.206;2022-08-19T17:02:02;32.90;;;19.43;;
12844;SDS011;6489;48.508;9.206;2022-08-19T17:05:24;37.87;;;19.87;;
12844;SDS011;6489;48.508;9.206;2022-08-19T17:08:48;31.90;;;19.57;;
12844;SDS011;6489;48.508;9.206;2022-08-19T17:12:10;28.17;;;18.70;;
12844;SDS011;6489;48.508;9.206;2022-08-19T17:15:34;34.70;;;20.03;;
12844;SDS011;6489;48.508;9.206;2022-08-19T17:18:57;39.27;;;21.13;;
12844;SDS011;6489;48.508;9.206;2022-08-19T17:22:21;32.53;;;22.90;;
12844;SDS011;6489;48.508;9.206;2022-08-19T17:25:45;50.67;;;27.47;;
12844;SDS011;6489;48.508;9.206;2022-08-19T17:29:07;24.03;;;21.63;;
12844;SDS011;6489;48.508;9.206;2022-08-19T17:32:29;25.60;;;18.53;;
12844;SDS011;6489;48.508;9.206;2022-08-19T17:35:54;35.87;;;18.47;;
12844;SDS011;6489;48.508;9.206;2022-08-19T17:39:16;38.57;;;17.03;;
12844;SDS011;6489;48.508;9.206;2022-08-19T17:42:39;17.87;;;16.10;;
12844;SDS011;6489;48.508;9.206;2022-08-19T17:46:02;40.10;;;21.33;;
12844;SDS011;6489;48.508;9.206;2022-08-19T17:49:24;34.27;;;20.40;;
12844;SDS011;6489;48.508;9.206;2022-08-19T17:52:46;30.50;;;18.73;;
12844;SDS011;6489;48.508;9.206;2022-08-19T17:56:08;26.20;;;20.00;;
12844;SDS011;6489;48.508;9.206;2022-08-19T17:59:33;46.50;;;21.90;;
12844;SDS011;6489;48.508;9.206;2022-08-19T18:02:57;43.60;;;20.73;;
12844;SDS011;6489;48.508;9.206;2022-08-19T18:06:21;39.30;;;21.10;;
12844;SDS011;6489;48.508;9.206;2022-08-19T18:09:44;37.53;;;19.70;;
12844;SDS011;6489;48.508;9.206;2022-08-19T18:13:09;34.77;;;19.97;;
12844;SDS011;6489;48.508;9.206;2022-08-19T18:16:33;37.10;;;20.60;;
12844;SDS011;6489;48.508;9.206;2022-08-19T18:19:58;23.77;;;18.57;;
12844;SDS011;6489;48.508;9.206;2022-08-19T18:23:20;26.57;;;18.93;;
12844;SDS011;6489;48.508;9.206;2022-08-19T18:26:43;36.40;;;21.23;;
12844;SDS011;6489;48.508;9.206;2022-08-19T18:30:05;37.40;;;20.70;;
12844;SDS011;6489;48.508;9.206;2022-08-19T18:33:29;24.37;;;18.53;;
12844;SDS011;6489;48.508;9.206;2022-08-19T18:36:51;36.27;;;20.37;;
12844;SDS011;6489;48.508;9.206;2022-08-19T18:40:14;48.53;;;21.77;;
12844;SDS011;6489;48.508;9.206;2022-08-19T18:43:56;18.83;;;17.03;;
12844;SDS011;6489;48.508;9.206;2022-08-19T18:47:47;28.83;;;18.60;;
12844;SDS011;6489;48.508;9.206;2022-08-19T18:51:28;38.40;;;17.70;;
12844;SDS011;6489;48.508;9.206;2022-08-19T18:54:50;27.07;;;18.40;;
12844;SDS011;6489;48.508;9.206;2022-08-19T18:58:13;40.50;;;18.03;;
12844;SDS011;6489;48.508;9.206;2022-08-19T19:01:36;29.47;;;17.37;;
12844;SDS011;6489;48.508;9.206;2022-08-19T19:05:00;27.03;;;18.10;;
12844;SDS011;6489;48.508;9.206;2022-08-19T19:08:23;33.70;;;17.27;;
12844;SDS011;6489;48.508;9.206;2022-08-19T19:11:46;26.67;;;16.83;;
12844;SDS011;6489;48.508;9.206;2022-08-19T19:15:09;18.17;;;15.77;;
12844;SDS011;6489;48.508;9.206;2022-08-19T19:18:31;23.77;;;16.40;;
12844;SDS011;6489;48.508;9.206;2022-08-19T19:21:53;25.30;;;17.43;;
12844;SDS011;6489;48.508;9.206;2022-08-19T19:25:18;32.13;;;17.47;;
12844;SDS011;6489;48.508;9.206;2022-08-19T19:28:41;18.60;;;16.33;;
12844;SDS011;6489;48.508;9.206;2022-08-19T19:32:07;18.23;;;16.10;;
12844;SDS011;6489;48.508;9.206;2022-08-19T19:35:30;19.70;;;17.27;;
12844;SDS011;6489;48.508;9.206;2022-08-19T19:38:52;45.43;;;17.67;;
12844;SDS011;6489;48.508;9.206;2022-08-19T19:42:16;37.93;;;17.23;;
12844;SDS011;6489;48.508;9.206;2022-08-19T19:45:39;41.67;;;17.97;;
12844;SDS011;6489;48.508;9.206;2022-08-19T19:49:02;43.53;;;17.93;;
12844;SDS011;6489;48.508;9.206;2022-08-19T19:52:24;44.40;;;17.37;;
12844;SDS011;6489;48.508;9.206;2022-08-19T19:55:45;19.83;;;16.60;;
12844;SDS011;6489;48.508;9.206;2022-08-19T19:59:09;25.70;;;15.93;;
12844;SDS011;6489;48.508;9.206;2022-08-19T20:02:31;32.90;;;16.20;;
12844;SDS011;6489;48.508;9.206;2022-08-19T20:05:53;28.00;;;15.50;;
12844;SDS011;6489;48.508;9.206;2022-08-19T20:09:19;15.00;;;13.60;;
12844;SDS011;6489;48.508;9.206;2022-08-19T20:12:41;25.47;;;14.73;;